Time;durP1;ratioP1;P1;durP2;ratioP2;P2;SDS_P1;SDS_P2;PMS_P1;PMS_P2;Temp;Humidity;BMP_temperature;BMP_pressure;BME280_temperature;BME280_humidity;BME280_pressure;Samples;Min_cycle;Max_cycle;Signal;HPM_P1;HPM_P2
2022/11/10 00:01:06;;;;;;;11.00;3.40;;;11.20;98.00;;;;;;5024620;28;20175;-78
2022/11/10 00:03:39;;;;;;;10.20;3.03;;;11.20;98.10;;;;;;5025203;28;20249;-77
2022/11/10 00:06:08;;;;;;;9.70;3.07;;;11.20;98.20;;;;;;5024722;28;20230;-78
2022/11/10 00:08:34;;;;;;;10.80;2.90;;;11.00;98.90;;;;;;5022907;28;20201;-82
2022/11/10 00:11:05;;;;;;;12.10;3.07;;;11.20;99.40;;;;;;5021889;28;20174;-79
2022/11/10 00:16:59;;;;;;;10.80;3.07;;;11.10;99.00;;;;;;5020931;28;20641;-78
2022/11/10 00:19:09;;;;;;;9.63;3.10;;;11.20;98.50;;;;;;5025203;28;20185;-81
2022/11/10 00:21:37;;;;;;;8.53;2.90;;;11.20;98.50;;;;;;5023177;28;20178;-79
2022/11/10 00:24:03;;;;;;;7.83;2.77;;;11.20;98.80;;;;;;5021885;28;20174;-78
2022/11/10 00:26:30;;;;;;;9.10;3.30;;;11.10;99.30;;;;;;5026656;28;20191;-79
2022/11/10 00:28:55;;;;;;;12.23;2.93;;;11.20;99.60;;;;;;5037104;28;20174;-77
2022/11/10 00:31:21;;;;;;;11.60;3.77;;;11.20;99.40;;;;;;5035954;28;20174;-78
2022/11/10 00:33:47;;;;;;;12.77;3.10;;;11.10;99.50;;;;;;5035763;28;20222;-77
2022/11/10 00:36:14;;;;;;;10.20;3.10;;;11.20;99.70;;;;;;5024394;28;20213;-77
2022/11/10 00:38:51;;;;;;;8.87;2.83;;;11.30;98.40;;;;;;5023812;28;20170;-78
2022/11/10 00:41:16;;;;;;;8.33;3.30;;;11.30;98.40;;;;;;5022672;28;20166;-78
2022/11/10 00:43:42;;;;;;;8.53;3.20;;;11.20;98.20;;;;;;5019050;28;20233;-77
2022/11/10 00:46:08;;;;;;;11.20;3.20;;;11.40;98.70;;;;;;5019230;28;20266;-77
2022/11/10 00:48:33;;;;;;;6.73;2.63;;;11.20;98.70;;;;;;5018532;28;20669;-77
2022/11/10 00:50:59;;;;;;;8.50;2.90;;;11.10;98.70;;;;;;5018408;28;20174;-77
2022/11/10 00:53:25;;;;;;;13.30;3.10;;;11.10;99.10;;;;;;5018074;28;20212;-79
2022/11/10 00:55:50;;;;;;;9.77;3.60;;;11.20;99.50;;;;;;5019569;28;20538;-77
2022/11/10 00:58:16;;;;;;;7.37;2.93;;;11.20;98.50;;;;;;5019340;28;20381;-76
2022/11/10 01:00:42;;;;;;;7.93;2.63;;;11.30;98.90;;;;;;5017473;28;20188;-77
2022/11/10 01:03:15;;;;;;;10.93;3.37;;;11.20;99.50;;;;;;5019714;28;20163;-77
2022/11/10 01:05:41;;;;;;;12.23;3.30;;;11.20;99.00;;;;;;5021006;28;20654;-78
2022/11/10 01:08:08;;;;;;;13.10;3.20;;;11.30;99.60;;;;;;5019513;28;20664;-79
2022/11/10 01:10:35;;;;;;;10.80;3.17;;;11.30;98.90;;;;;;5018219;28;20190;-78
2022/11/10 01:13:02;;;;;;;11.13;3.20;;;11.20;99.20;;;;;;5018942;28;20206;-78
2022/11/10 01:15:27;;;;;;;10.87;2.87;;;11.20;99.60;;;;;;5018842;28;20181;-78
2022/11/10 01:17:55;;;;;;;8.83;2.83;;;11.20;99.90;;;;;;5022748;28;20181;-77
2022/11/10 01:20:22;;;;;;;11.23;2.97;;;11.10;99.90;;;;;;5037985;28;20163;-76
2022/11/10 01:22:49;;;;;;;12.57;3.17;;;11.20;99.90;;;;;;5035262;28;20185;-77
2022/11/10 01:25:16;;;;;;;11.37;3.17;;;11.20;99.90;;;;;;5037886;28;20278;-77
2022/11/10 01:27:43;;;;;;;9.83;3.33;;;11.10;99.90;;;;;;5018993;28;20173;-79
2022/11/10 01:30:09;;;;;;;12.23;3.63;;;11.20;99.80;;;;;;5018595;28;20673;-78
2022/11/10 01:32:36;;;;;;;13.60;3.57;;;11.10;99.90;;;;;;5017805;28;20689;-78
2022/11/10 01:35:02;;;;;;;7.93;2.80;;;11.20;99.90;;;;;;5017738;28;20270;-78
2022/11/10 01:37:27;;;;;;;10.60;3.00;;;11.10;99.90;;;;;;5018975;28;20618;-77
2022/11/10 01:39:53;;;;;;;10.63;3.50;;;11.20;99.90;;;;;;5017040;28;20178;-78
2022/11/10 01:42:25;;;;;;;10.57;3.30;;;11.20;99.90;;;;;;5017642;28;20167;-78
2022/11/10 01:45:23;;;;;;;12.93;3.67;;;11.20;99.90;;;;;;5017693;28;20171;-77
2022/11/10 01:48:03;;;;;;;10.93;3.00;;;11.20;99.90;;;;;;4992188;28;20329;-79
2022/11/10 01:50:34;;;;;;;15.03;3.90;;;11.20;99.90;;;;;;5018962;28;20704;-78
2022/11/10 01:53:03;;;;;;;12.07;3.30;;;11.40;99.90;;;;;;5017338;28;20256;-78
2022/11/10 01:55:30;;;;;;;14.23;3.63;;;11.20;99.90;;;;;;5017197;28;20190;-78
2022/11/10 01:57:58;;;;;;;11.10;3.40;;;11.20;99.90;;;;;;5018632;28;20250;-78
2022/11/10 02:00:24;;;;;;;9.97;2.90;;;11.20;99.90;;;;;;5016745;28;20217;-78
2022/11/10 02:03:28;;;;;;;14.87;3.10;;;11.10;99.90;;;;;;5017342;28;20167;-78
2022/11/10 02:05:54;;;;;;;11.17;3.40;;;11.10;99.90;;;;;;5010831;28;20269;-78
2022/11/10 02:08:22;;;;;;;12.67;3.47;;;11.10;99.90;;;;;;5017272;28;20159;-79
2022/11/10 02:10:47;;;;;;;11.27;2.97;;;11.10;99.90;;;;;;5016758;28;20198;-78
2022/11/10 02:13:13;;;;;;;12.57;3.20;;;11.20;99.90;;;;;;5018015;28;20293;-78
2022/11/10 02:15:39;;;;;;;13.37;3.73;;;11.20;99.90;;;;;;5019851;28;20178;-78
2022/11/10 02:18:04;;;;;;;9.73;2.90;;;11.20;99.90;;;;;;5017417;28;20197;-77
2022/11/10 02:20:30;;;;;;;10.50;3.03;;;11.10;99.90;;;;;;5019446;28;20171;-77
2022/11/10 02:22:56;;;;;;;9.33;3.07;;;11.10;99.90;;;;;;5020415;28;20174;-78
2022/11/10 02:25:24;;;;;;;12.57;3.50;;;11.00;99.90;;;;;;5021219;28;20188;-77
2022/11/10 02:27:49;;;;;;;10.97;3.30;;;11.10;99.90;;;;;;5023823;28;20158;-77
2022/11/10 02:30:16;;;;;;;14.57;3.70;;;11.00;99.90;;;;;;5023809;28;20206;-77
2022/11/10 02:32:42;;;;;;;10.70;3.20;;;10.90;99.90;;;;;;5022095;28;20202;-79
2022/11/10 02:35:08;;;;;;;11.37;3.40;;;10.90;99.90;;;;;;5020293;28;20186;-77
2022/11/10 02:37:34;;;;;;;13.43;3.47;;;10.90;99.90;;;;;;5023849;28;20174;-78
2022/11/10 02:40:00;;;;;;;10.83;3.20;;;11.00;99.90;;;;;;5021441;28;20744;-78
2022/11/10 02:42:26;;;;;;;9.93;3.57;;;10.80;99.90;;;;;;5021934;28;20178;-78
2022/11/10 02:44:52;;;;;;;9.70;2.90;;;10.80;99.90;;;;;;5020476;28;20170;-79
2022/11/10 02:47:18;;;;;;;12.67;3.30;;;10.70;99.90;;;;;;5020225;28;20711;-77
2022/11/10 02:49:44;;;;;;;5.93;3.00;;;10.80;99.90;;;;;;5017654;28;20192;-77
2022/11/10 02:52:10;;;;;;;13.47;3.13;;;10.70;99.90;;;;;;5017899;28;20723;-78
2022/11/10 02:54:35;;;;;;;11.03;3.10;;;10.70;99.90;;;;;;5021587;28;20166;-77
2022/11/10 02:57:02;;;;;;;9.63;2.87;;;10.50;99.90;;;;;;5021729;28;20182;-78
2022/11/10 02:59:27;;;;;;;13.20;3.40;;;10.60;99.90;;;;;;5023036;28;20177;-79
2022/11/10 03:01:53;;;;;;;10.17;3.27;;;10.60;99.90;;;;;;5020781;28;20166;-78
2022/11/10 03:04:19;;;;;;;12.97;3.10;;;10.70;99.90;;;;;;5018345;28;20221;-79
2022/11/10 03:06:45;;;;;;;11.63;3.27;;;10.70;99.90;;;;;;5018878;28;20698;-77
2022/11/10 03:09:10;;;;;;;16.00;4.20;;;10.80;99.90;;;;;;5020857;28;20558;-79
2022/11/10 03:11:36;;;;;;;13.77;3.10;;;10.70;99.90;;;;;;5018395;28;20196;-77
2022/11/10 03:14:04;;;;;;;10.53;3.07;;;10.70;99.90;;;;;;5020985;28;20182;-78
2022/11/10 03:16:30;;;;;;;10.60;3.17;;;10.60;99.90;;;;;;5021329;28;20175;-78
2022/11/10 03:18:59;;;;;;;10.87;3.13;;;10.70;99.90;;;;;;5022316;28;20174;-77
2022/11/10 03:21:24;;;;;;;13.27;3.70;;;10.70;99.90;;;;;;5019145;28;20198;-77
2022/11/10 03:23:50;;;;;;;12.93;3.30;;;10.70;99.90;;;;;;5018901;28;20522;-78
2022/11/10 03:26:15;;;;;;;12.50;3.20;;;10.70;99.90;;;;;;5018883;28;20202;-78
2022/11/10 03:28:41;;;;;;;13.73;3.10;;;10.70;99.90;;;;;;5020012;28;20694;-76
2022/11/10 03:31:07;;;;;;;9.73;3.07;;;10.70;99.90;;;;;;5018054;28;20189;-79
2022/11/10 03:33:32;;;;;;;12.43;3.63;;;10.50;99.90;;;;;;5026578;28;20231;-78
2022/11/10 03:35:58;;;;;;;11.47;3.67;;;10.50;99.90;;;;;;5038125;28;20249;-76
2022/11/10 03:38:24;;;;;;;10.80;3.23;;;10.60;99.90;;;;;;5035943;28;20169;-79
2022/11/10 03:40:52;;;;;;;10.23;2.73;;;10.60;99.90;;;;;;5033893;28;20178;-78
2022/11/10 03:43:18;;;;;;;12.27;2.90;;;10.50;99.90;;;;;;5024490;28;20213;-77
2022/11/10 03:45:45;;;;;;;11.97;3.27;;;10.60;99.90;;;;;;5023544;28;20193;-88
2022/11/10 03:48:10;;;;;;;10.90;2.97;;;10.60;99.90;;;;;;5025236;28;20190;-85
2022/11/10 03:50:36;;;;;;;14.43;3.63;;;10.50;99.90;;;;;;5024875;28;20352;-77
2022/11/10 03:53:02;;;;;;;11.80;3.33;;;10.60;99.90;;;;;;5025170;28;20562;-78
2022/11/10 03:55:27;;;;;;;13.03;3.57;;;10.60;99.90;;;;;;5024181;28;20190;-78
2022/11/10 03:57:53;;;;;;;13.20;2.93;;;10.80;99.90;;;;;;5023660;28;20166;-77
2022/11/10 04:00:20;;;;;;;12.47;3.10;;;10.80;99.90;;;;;;5021356;28;20578;-78
2022/11/10 04:02:47;;;;;;;10.27;3.03;;;10.80;99.90;;;;;;5020205;28;20220;-78
2022/11/10 04:10:45;;;;;;;10.37;3.27;;;10.60;99.90;;;;;;5022643;28;20177;-78
2022/11/10 04:15:56;;;;;;;12.27;3.73;;;10.50;99.90;;;;;;5025566;28;20201;-78
2022/11/10 04:18:24;;;;;;;11.97;3.13;;;10.50;99.90;;;;;;5023124;28;20170;-89
2022/11/10 04:20:55;;;;;;;11.03;3.23;;;10.50;99.90;;;;;;5024119;28;20169;-77
2022/11/10 04:23:25;;;;;;;10.23;3.17;;;10.50;99.90;;;;;;5023588;28;20171;-78
2022/11/10 04:28:47;;;;;;;10.30;3.30;;;10.40;99.90;;;;;;5040531;28;20217;-78
2022/11/10 04:31:13;;;;;;;12.37;3.40;;;10.50;99.90;;;;;;5043049;28;20146;-77
2022/11/10 04:33:40;;;;;;;13.10;3.23;;;10.40;99.90;;;;;;5038343;28;20213;-78
2022/11/10 04:36:10;;;;;;;10.80;3.00;;;10.40;99.90;;;;;;5022256;28;20174;-78
2022/11/10 04:38:36;;;;;;;10.07;3.27;;;10.40;99.90;;;;;;5022573;28;20254;-78
2022/11/10 04:41:04;;;;;;;11.00;3.10;;;10.50;99.90;;;;;;5022282;28;20165;-77
2022/11/10 04:43:30;;;;;;;14.57;3.40;;;10.40;99.90;;;;;;5023410;28;20644;-77
2022/11/10 04:45:56;;;;;;;14.63;3.83;;;10.40;99.90;;;;;;5021442;28;20163;-79
2022/11/10 04:48:23;;;;;;;15.30;3.50;;;10.40;99.90;;;;;;5021081;28;20236;-78
2022/11/10 04:50:49;;;;;;;15.77;3.70;;;10.30;99.90;;;;;;5020494;28;20178;-79
2022/11/10 04:53:15;;;;;;;14.87;3.47;;;10.30;99.90;;;;;;5020242;28;20251;-79
2022/11/10 04:55:42;;;;;;;12.37;3.70;;;10.30;99.90;;;;;;5021271;28;20546;-77
2022/11/10 04:58:08;;;;;;;11.60;3.70;;;10.30;99.90;;;;;;5018600;28;20167;-78
2022/11/10 05:00:34;;;;;;;16.43;3.40;;;10.40;99.90;;;;;;5020577;28;20634;-79
2022/11/10 05:03:02;;;;;;;12.87;3.87;;;10.30;99.90;;;;;;5018726;28;20177;-78
2022/11/10 05:05:30;;;;;;;10.60;3.50;;;10.30;99.90;;;;;;5018479;28;20225;-79
2022/11/10 05:07:56;;;;;;;15.03;3.80;;;10.30;99.90;;;;;;5018563;28;20174;-78
2022/11/10 05:10:22;;;;;;;10.97;2.80;;;10.30;99.90;;;;;;5020172;28;20197;-77
2022/11/10 05:12:47;;;;;;;11.20;2.90;;;10.20;99.90;;;;;;5019748;28;20276;-79
2022/11/10 05:15:13;;;;;;;12.43;3.00;;;10.30;99.90;;;;;;5021649;28;20185;-79
2022/11/10 05:17:39;;;;;;;17.07;3.53;;;10.30;99.90;;;;;;5020780;28;20244;-78
2022/11/10 05:20:06;;;;;;;11.27;3.63;;;10.20;99.90;;;;;;5021811;28;20534;-90
2022/11/10 05:22:31;;;;;;;16.97;3.50;;;10.20;99.90;;;;;;5021133;28;20183;-77
2022/11/10 05:24:57;;;;;;;11.40;3.67;;;10.20;99.90;;;;;;5021519;28;20173;-77
2022/11/10 05:27:22;;;;;;;9.97;3.63;;;10.20;99.90;;;;;;5018132;28;20177;-78
2022/11/10 05:29:48;;;;;;;12.90;3.30;;;10.10;99.90;;;;;;5019787;28;20173;-81
2022/11/10 05:32:14;;;;;;;12.20;3.13;;;10.10;99.90;;;;;;5019589;28;20604;-78
2022/11/10 05:34:39;;;;;;;14.23;3.50;;;10.10;99.90;;;;;;5018203;28;20179;-78
2022/11/10 05:37:05;;;;;;;12.47;3.40;;;10.10;99.90;;;;;;5016717;28;20209;-78
2022/11/10 05:39:32;;;;;;;13.30;4.13;;;10.10;99.90;;;;;;5020797;28;20197;-78
2022/11/10 05:41:58;;;;;;;12.63;3.60;;;10.10;99.90;;;;;;5023279;28;20174;-77
2022/11/10 05:44:24;;;;;;;16.67;3.83;;;10.10;99.90;;;;;;5023227;28;20185;-79
2022/11/10 05:46:49;;;;;;;15.37;3.70;;;10.10;99.90;;;;;;5018468;28;20171;-78
2022/11/10 05:49:15;;;;;;;16.77;3.47;;;10.10;99.90;;;;;;5021795;28;20170;-79
2022/11/10 05:51:40;;;;;;;14.90;3.50;;;10.00;99.90;;;;;;5021025;28;20194;-79
2022/11/10 05:54:07;;;;;;;12.27;3.47;;;10.10;99.90;;;;;;5020179;28;20221;-79
2022/11/10 05:56:33;;;;;;;11.20;3.30;;;10.10;99.90;;;;;;5022434;28;20285;-78
2022/11/10 05:58:58;;;;;;;11.80;3.90;;;10.20;99.90;;;;;;5023825;28;20170;-78
2022/11/10 06:01:24;;;;;;;13.47;3.60;;;10.10;99.90;;;;;;5021991;28;20178;-79
2022/11/10 06:03:49;;;;;;;12.90;3.60;;;10.10;99.90;;;;;;5019610;28;20174;-78
2022/11/10 06:06:16;;;;;;;13.53;3.27;;;10.00;99.90;;;;;;5019422;28;20265;-79
2022/11/10 06:08:42;;;;;;;12.57;3.53;;;10.10;99.90;;;;;;5017738;28;20170;-78
2022/11/10 06:11:08;;;;;;;18.03;4.27;;;10.30;99.90;;;;;;5017095;28;20261;-79
2022/11/10 06:13:33;;;;;;;11.47;3.17;;;10.10;99.90;;;;;;5016454;28;20244;-79
2022/11/10 06:15:59;;;;;;;13.73;3.73;;;10.00;99.90;;;;;;5016726;28;20205;-78
2022/11/10 06:18:26;;;;;;;17.77;3.70;;;10.10;99.90;;;;;;5017044;28;20216;-78
2022/11/10 06:20:51;;;;;;;11.53;3.20;;;10.00;99.90;;;;;;5016901;28;20245;-79
2022/11/10 06:23:17;;;;;;;15.23;4.33;;;10.00;99.90;;;;;;5021591;28;20210;-80
2022/11/10 06:25:43;;;;;;;13.60;3.63;;;10.10;99.90;;;;;;5019629;28;20249;-79
2022/11/10 06:28:09;;;;;;;16.00;3.77;;;10.10;99.90;;;;;;5017119;28;20209;-78
2022/11/10 06:30:36;;;;;;;14.50;3.40;;;10.20;99.90;;;;;;5021149;28;20193;-78
2022/11/10 06:33:03;;;;;;;12.87;3.70;;;10.20;99.90;;;;;;5033534;28;20214;-78
2022/11/10 06:35:29;;;;;;;16.67;3.77;;;10.30;99.90;;;;;;5031682;28;20163;-79
2022/11/10 06:38:07;;;;;;;11.03;3.97;;;10.20;99.90;;;;;;5031139;28;20181;-80
2022/11/10 06:40:33;;;;;;;14.53;4.30;;;10.10;99.90;;;;;;5022282;28;20219;-78
2022/11/10 06:43:03;;;;;;;14.77;4.23;;;10.10;99.90;;;;;;5028325;28;20174;-79
2022/11/10 06:45:29;;;;;;;17.57;4.13;;;10.20;99.90;;;;;;5024142;28;20182;-79
2022/11/10 06:48:06;;;;;;;13.97;4.20;;;10.20;99.90;;;;;;5022312;28;20670;-79
2022/11/10 06:50:32;;;;;;;13.40;4.13;;;10.00;99.90;;;;;;5019776;28;20240;-79
2022/11/10 06:53:00;;;;;;;13.20;3.80;;;10.10;99.90;;;;;;5018867;28;20202;-81
2022/11/10 06:55:26;;;;;;;16.13;4.80;;;10.20;99.90;;;;;;5019286;28;20190;-81
2022/11/10 06:57:58;;;;;;;14.20;4.93;;;10.00;99.90;;;;;;5022732;28;20257;-83
2022/11/10 07:00:26;;;;;;;15.17;4.07;;;10.10;99.90;;;;;;5019632;28;20261;-80
2022/11/10 07:03:20;;;;;;;13.17;3.77;;;10.10;99.90;;;;;;5018995;28;20170;-80
2022/11/10 07:05:46;;;;;;;11.87;4.03;;;10.20;99.90;;;;;;5018002;28;20201;-80
2022/11/10 07:08:15;;;;;;;19.33;4.03;;;10.20;99.90;;;;;;5017168;28;20572;-81
2022/11/10 07:10:41;;;;;;;15.80;3.90;;;10.10;99.90;;;;;;5014330;28;20209;-80
2022/11/10 07:13:08;;;;;;;12.10;3.80;;;10.10;99.90;;;;;;5015245;28;20210;-81
2022/11/10 07:15:35;;;;;;;12.00;4.17;;;10.10;99.90;;;;;;5016210;28;20171;-81
2022/11/10 07:18:04;;;;;;;17.10;4.03;;;10.10;99.90;;;;;;5017578;28;20182;-81
2022/11/10 07:20:30;;;;;;;13.30;4.27;;;10.20;99.90;;;;;;5019213;28;20178;-81
2022/11/10 07:23:01;;;;;;;10.77;3.70;;;10.20;99.90;;;;;;5016634;28;20182;-80
2022/11/10 07:25:36;;;;;;;12.37;4.27;;;10.20;99.90;;;;;;5019023;28;20166;-79
2022/11/10 07:28:09;;;;;;;15.20;4.73;;;10.20;99.90;;;;;;5017444;28;20181;-80
2022/11/10 07:30:40;;;;;;;17.93;4.47;;;10.20;99.90;;;;;;5024731;28;20174;-81
2022/11/10 07:33:11;;;;;;;15.53;4.27;;;10.30;99.90;;;;;;5025848;28;20212;-83
2022/11/10 07:35:38;;;;;;;10.50;3.60;;;10.30;99.90;;;;;;5037086;28;20182;-77
2022/11/10 07:38:08;;;;;;;18.90;4.43;;;10.40;99.90;;;;;;5035760;28;20177;-79
2022/11/10 07:40:34;;;;;;;19.93;4.83;;;10.50;99.90;;;;;;5035672;28;20161;-88
2022/11/10 07:43:01;;;;;;;11.40;3.83;;;10.40;99.90;;;;;;5020098;28;20178;-81
2022/11/10 07:45:28;;;;;;;12.17;3.77;;;10.40;99.90;;;;;;5017543;28;20261;-85
2022/11/10 07:48:04;;;;;;;15.70;4.40;;;10.50;99.90;;;;;;5019188;28;20269;-82
2022/11/10 07:50:30;;;;;;;13.50;4.17;;;10.50;99.90;;;;;;5015571;28;20197;-81
2022/11/10 07:53:14;;;;;;;22.07;4.37;;;10.50;99.90;;;;;;5017591;28;20237;-80
2022/11/10 07:55:44;;;;;;;23.20;4.80;;;10.60;99.90;;;;;;5024476;28;20195;-80
2022/11/10 07:58:15;;;;;;;18.13;4.23;;;10.70;99.90;;;;;;5025717;28;20189;-79
2022/11/10 08:00:42;;;;;;;24.60;4.53;;;10.70;99.90;;;;;;5028111;28;20229;-79
2022/11/10 08:03:13;;;;;;;18.30;4.70;;;10.90;99.90;;;;;;5027832;28;20174;-80
2022/11/10 08:05:55;;;;;;;23.63;7.30;;;10.80;99.90;;;;;;5031383;28;20173;-78
2022/11/10 08:08:22;;;;;;;19.13;5.37;;;10.90;99.90;;;;;;5025780;28;20243;-79
2022/11/10 08:10:49;;;;;;;20.60;5.07;;;10.90;99.90;;;;;;5027049;28;20185;-83
2022/11/10 08:13:16;;;;;;;20.13;3.97;;;10.90;99.90;;;;;;5022753;28;20202;-92
2022/11/10 08:15:48;;;;;;;15.33;4.63;;;11.00;99.90;;;;;;5028518;28;20178;-77
2022/11/10 08:18:17;;;;;;;15.50;4.73;;;11.00;99.90;;;;;;5027509;28;20547;-79
2022/11/10 08:20:43;;;;;;;21.50;5.83;;;11.10;99.90;;;;;;5031333;28;20162;-80
2022/11/10 08:23:12;;;;;;;18.27;5.33;;;11.20;99.90;;;;;;5030097;28;20228;-81
2022/11/10 08:25:40;;;;;;;12.77;3.73;;;11.30;99.90;;;;;;5033071;28;20221;-78
2022/11/10 08:28:11;;;;;;;13.63;3.93;;;11.40;99.90;;;;;;5030827;28;20174;-80
2022/11/10 08:30:39;;;;;;;15.87;4.63;;;11.40;99.90;;;;;;5024279;28;20183;-81
2022/11/10 08:33:08;;;;;;;14.87;4.13;;;11.50;99.90;;;;;;5022402;28;20233;-79
2022/11/10 08:35:38;;;;;;;18.10;4.23;;;11.50;99.90;;;;;;5021459;28;20511;-82
2022/11/10 08:38:31;;;;;;;15.80;4.23;;;11.70;99.90;;;;;;5017974;28;20265;-86
2022/11/10 08:40:59;;;;;;;18.23;4.27;;;11.80;99.50;;;;;;5018712;28;20723;-77
2022/11/10 08:43:25;;;;;;;11.60;3.40;;;11.80;98.40;;;;;;5019070;28;20158;-81
2022/11/10 08:45:55;;;;;;;11.93;3.77;;;11.80;98.20;;;;;;5022482;28;20179;-81
2022/11/10 08:48:23;;;;;;;13.73;3.90;;;11.90;98.10;;;;;;5020903;28;20700;-79
2022/11/10 08:50:51;;;;;;;11.57;4.40;;;11.90;97.90;;;;;;5021990;28;20166;-88
2022/11/10 08:53:35;;;;;;;14.67;4.37;;;12.00;97.50;;;;;;5020709;28;20407;-81
2022/11/10 08:56:01;;;;;;;16.50;5.07;;;12.00;97.00;;;;;;5020573;28;20195;-88
2022/11/10 08:58:26;;;;;;;24.80;5.83;;;12.30;95.90;;;;;;5020834;28;20173;-94
2022/11/10 09:00:52;;;;;;;11.93;4.23;;;12.20;94.80;;;;;;5021108;28;20189;-86
2022/11/10 09:03:23;;;;;;;18.53;5.13;;;12.40;93.70;;;;;;5021691;28;20198;-91
2022/11/10 09:05:50;;;;;;;15.63;5.07;;;12.40;92.30;;;;;;5021392;28;20181;-86
2022/11/10 09:08:17;;;;;;;14.70;5.03;;;12.50;91.00;;;;;;5022306;28;20173;-79
2022/11/10 09:10:46;;;;;;;15.57;5.63;;;12.50;91.20;;;;;;5024683;28;20167;-80
2022/11/10 09:13:13;;;;;;;16.93;4.97;;;12.80;86.10;;;;;;5022335;28;20603;-81
2022/11/10 09:15:42;;;;;;;14.00;5.37;;;12.70;83.40;;;;;;5019546;28;20234;-79
2022/11/10 09:18:09;;;;;;;16.93;5.80;;;12.70;84.40;;;;;;5019091;28;20242;-78
2022/11/10 09:20:37;;;;;;;16.90;5.27;;;12.80;82.20;;;;;;5011084;28;20180;-88
2022/11/10 09:23:14;;;;;;;14.83;5.17;;;12.90;82.10;;;;;;5015231;28;20189;-91
2022/11/10 09:25:40;;;;;;;17.27;5.63;;;12.90;83.00;;;;;;5022558;28;20187;-83
2022/11/10 09:28:13;;;;;;;23.23;5.90;;;12.90;80.90;;;;;;5023618;28;20163;-87
2022/11/10 09:30:39;;;;;;;20.00;5.73;;;13.10;77.80;;;;;;5020162;28;20176;-88
2022/11/10 09:33:05;;;;;;;16.87;5.60;;;13.10;76.40;;;;;;5024583;28;20198;-86
2022/11/10 09:35:30;;;;;;;13.17;5.20;;;13.10;77.10;;;;;;5038870;28;20154;-80
2022/11/10 09:37:56;;;;;;;18.97;5.70;;;13.20;75.90;;;;;;5038366;28;20171;-79
2022/11/10 09:40:42;;;;;;;17.37;6.07;;;13.20;74.90;;;;;;5036506;28;20214;-77
2022/11/10 09:43:22;;;;;;;17.27;5.93;;;13.30;73.80;;;;;;5028071;28;20198;-79
2022/11/10 09:45:52;;;;;;;16.10;5.20;;;13.30;70.90;;;;;;5024687;28;20546;-77
2022/11/10 09:48:28;;;;;;;16.47;5.80;;;13.50;69.20;;;;;;5028718;28;20198;-78
2022/11/10 09:51:07;;;;;;;17.03;5.83;;;13.90;60.00;;;;;;5035828;28;20179;-77
2022/11/10 09:54:04;;;;;;;18.23;5.30;;;13.90;55.40;;;;;;5033869;28;20242;-77
2022/11/10 09:56:35;;;;;;;14.40;5.87;;;13.80;51.00;;;;;;5028116;28;20215;-79
2022/11/10 09:59:25;;;;;;;11.73;5.20;;;13.70;54.00;;;;;;5025865;28;20202;-81
2022/11/10 10:02:48;;;;;;;17.50;5.63;;;13.70;53.50;;;;;;5033214;28;20182;-86
2022/11/10 10:05:39;;;;;;;13.13;4.80;;;13.70;54.70;;;;;;4935409;28;20194;-90
2022/11/10 10:08:26;;;;;;;12.47;4.57;;;13.90;48.00;;;;;;5032955;28;20166;-89
2022/11/10 10:11:25;;;;;;;12.77;4.87;;;14.00;45.40;;;;;;5033296;28;20181;-92
2022/11/10 10:14:10;;;;;;;13.57;4.70;;;14.00;43.30;;;;;;5019286;28;20219;-80
2022/11/10 10:16:41;;;;;;;13.33;4.67;;;14.00;43.60;;;;;;5019436;28;20171;-82
2022/11/10 10:19:27;;;;;;;15.10;4.80;;;14.20;40.70;;;;;;5018624;28;20177;-85
2022/11/10 10:25:24;;;;;;;12.57;4.30;;;14.30;34.30;;;;;;5017250;28;20184;-82
2022/11/10 10:28:15;;;;;;;12.80;4.20;;;14.30;34.30;;;;;;5020152;28;20251;-91
2022/11/10 10:30:42;;;;;;;12.07;4.10;;;14.50;29.50;;;;;;5031218;28;20207;-94
2022/11/10 10:33:19;;;;;;;15.60;4.80;;;14.60;23.30;;;;;;5032712;28;20205;-84
2022/11/10 10:35:49;;;;;;;12.97;4.73;;;14.60;23.60;;;;;;5029042;28;20190;-88
2022/11/10 10:38:37;;;;;;;10.20;3.90;;;14.50;25.00;;;;;;5032689;28;20181;-86
2022/11/10 10:41:23;;;;;;;11.00;4.10;;;14.40;26.10;;;;;;5027951;28;20165;-86
2022/11/10 10:43:53;;;;;;;13.77;4.23;;;14.50;23.00;;;;;;5036643;28;20168;-79
2022/11/10 10:46:30;;;;;;;14.27;4.60;;;14.60;23.80;;;;;;5035907;28;20175;-79
2022/11/10 10:49:06;;;;;;;16.83;4.97;;;14.80;17.80;;;;;;5033640;28;20177;-80
2022/11/10 10:51:35;;;;;;;14.83;4.13;;;14.90;11.50;;;;;;5023425;28;20178;-80
2022/11/10 10:54:00;;;;;;;13.83;4.60;;;14.80;12.30;;;;;;5020215;28;20190;-85
2022/11/10 10:56:32;;;;;;;10.50;4.17;;;14.80;14.60;;;;;;5017986;28;20563;-90
2022/11/10 10:59:01;;;;;;;12.07;4.10;;;14.80;14.10;;;;;;5018692;28;20584;-82
2022/11/10 11:01:31;;;;;;;15.97;4.40;;;14.80;15.30;;;;;;5015512;28;20232;-80
2022/11/10 11:03:58;;;;;;;16.80;4.77;;;15.00;14.50;;;;;;5019881;28;20158;-79
2022/11/10 11:06:28;;;;;;;13.80;4.23;;;15.00;10.80;;;;;;5018523;28;20174;-81
2022/11/10 11:08:59;;;;;;;12.17;3.90;;;15.00;9.80;;;;;;5027435;28;20191;-79
2022/11/10 11:11:36;;;;;;;11.80;3.67;;;14.90;11.50;;;;;;5027447;28;20234;-78
2022/11/10 11:14:17;;;;;;;14.73;4.63;;;15.00;13.10;;;;;;4994791;28;20221;-81
2022/11/10 11:17:17;;;;;;;10.60;2.83;;;15.10;12.20;;;;;;5023732;28;20188;-82
2022/11/10 11:19:44;;;;;;;11.37;3.53;;;14.90;8.50;;;;;;5017025;28;20220;-78
2022/11/10 11:22:44;;;;;;;9.70;3.53;;;14.90;10.00;;;;;;5022542;28;20174;-87
2022/11/10 11:25:27;;;;;;;13.07;4.33;;;14.90;9.20;;;;;;5024107;28;20201;-83
2022/11/10 11:28:29;;;;;;;10.10;3.87;;;14.90;10.40;;;;;;5007196;28;20186;-80
2022/11/10 11:31:18;;;;;;;10.53;4.07;;;14.90;7.60;;;;;;5016097;28;20169;-80
2022/11/10 11:34:11;;;;;;;13.57;4.37;;;14.90;11.20;;;;;;5016085;28;20190;-84
2022/11/10 11:37:05;;;;;;;13.57;4.90;;;15.10;10.30;;;;;;5015781;28;20252;-80
2022/11/10 11:40:00;;;;;;;17.60;4.57;;;15.20;5.50;;;;;;5031901;28;20197;-85
2022/11/10 11:42:29;;;;;;;11.97;4.87;;;15.30;4.70;;;;;;5018801;28;20195;-86
2022/11/10 11:45:14;;;;;;;13.57;4.30;;;15.30;4.50;;;;;;5024288;28;20195;-91
2022/11/10 11:48:18;;;;;;;13.67;3.97;;;15.30;2.20;;;;;;5025611;28;20232;-88
2022/11/10 11:51:14;;;;;;;11.93;3.37;;;15.40;1.00;;;;;;5029201;28;20166;-85
2022/11/10 11:53:51;;;;;;;10.73;2.87;;;15.30;1.00;;;;;;5017525;28;20665;-79
2022/11/10 11:56:22;;;;;;;11.27;3.80;;;15.30;1.00;;;;;;5018637;28;20244;-81
2022/11/10 11:59:21;;;;;;;9.23;3.00;;;15.40;1.00;;;;;;5019250;28;20181;-79
2022/11/10 12:02:01;;;;;;;8.87;4.00;;;15.50;1.00;;;;;;5020533;28;20170;-88
2022/11/10 12:05:04;;;;;;;9.13;3.53;;;15.60;1.00;;;;;;5028067;28;20220;-84
2022/11/10 12:07:43;;;;;;;8.67;2.93;;;15.60;1.00;;;;;;5023063;28;20170;-78
2022/11/10 12:10:33;;;;;;;10.73;3.70;;;15.80;1.00;;;;;;5019145;28;20154;-79
2022/11/10 12:13:42;;;;;;;12.03;3.57;;;15.90;1.00;;;;;;5025764;28;20223;-92
2022/11/10 12:16:26;;;;;;;7.37;2.90;;;15.70;1.00;;;;;;4996468;28;20197;-82
2022/11/10 12:19:05;;;;;;;9.43;3.27;;;15.80;1.00;;;;;;5026756;28;20200;-85
2022/11/10 12:21:53;;;;;;;9.33;3.13;;;15.80;1.00;;;;;;5026394;28;20158;-93
2022/11/10 12:24:38;;;;;;;10.10;3.40;;;15.70;1.00;;;;;;5016661;28;20173;-79
2022/11/10 12:27:27;;;;;;;8.40;2.77;;;15.80;1.00;;;;;;5018930;28;20241;-89
2022/11/10 12:30:09;;;;;;;9.50;3.07;;;15.90;1.00;;;;;;5023613;28;20256;-91
2022/11/10 12:32:41;;;;;;;9.67;3.00;;;16.00;1.00;;;;;;5029598;28;20186;-79
2022/11/10 12:35:23;;;;;;;6.17;2.33;;;16.10;1.00;;;;;;5039554;28;20162;-79
2022/11/10 12:38:04;;;;;;;11.23;2.67;;;16.10;1.00;;;;;;5035770;28;20213;-78
2022/11/10 12:40:46;;;;;;;7.57;1.80;;;16.30;1.00;;;;;;5027625;28;20171;-79
2022/11/10 12:43:28;;;;;;;9.03;2.33;;;16.30;1.00;;;;;;5034207;28;20189;-79
2022/11/10 12:46:05;;;;;;;11.00;2.20;;;16.20;1.00;;;;;;5031241;28;20218;-90
2022/11/10 12:48:44;;;;;;;12.73;3.00;;;16.20;1.00;;;;;;5033231;28;20209;-89
2022/11/10 12:51:23;;;;;;;6.07;2.10;;;16.20;1.00;;;;;;5031360;28;20170;-87
2022/11/10 12:53:49;;;;;;;12.17;2.57;;;16.30;1.00;;;;;;5022264;28;20208;-80
2022/11/10 12:56:23;;;;;;;7.77;2.27;;;16.40;1.00;;;;;;5020176;28;20191;-80
2022/11/10 12:59:20;;;;;;;9.30;2.10;;;16.30;1.00;;;;;;5021925;28;20179;-79
2022/11/10 13:01:51;;;;;;;8.17;2.43;;;16.30;1.00;;;;;;5020562;28;20209;-80
2022/11/10 13:04:19;;;;;;;4.47;1.73;;;16.50;1.00;;;;;;5019363;28;20170;-79
2022/11/10 13:06:54;;;;;;;5.50;1.70;;;16.60;1.00;;;;;;5016155;28;20166;-80
2022/11/10 13:09:34;;;;;;;5.30;1.73;;;16.50;1.00;;;;;;5016643;28;20174;-80
2022/11/10 13:12:16;;;;;;;6.17;1.50;;;16.30;1.00;;;;;;5017334;28;20166;-80
2022/11/10 13:14:43;;;;;;;9.20;1.93;;;16.30;1.00;;;;;;5016408;28;20175;-80
2022/11/10 13:17:30;;;;;;;7.83;1.87;;;16.30;1.00;;;;;;5018274;28;20166;-83
2022/11/10 13:19:59;;;;;;;7.60;1.70;;;16.30;1.00;;;;;;5025422;28;20194;-89